Time;durP1;ratioP1;P1;durP2;ratioP2;P2;SDS_P1;SDS_P2;PMS_P1;PMS_P2;Temp;Humidity;BMP_temperature;BMP_pressure;BME280_temperature;BME280_humidity;BME280_pressure;Samples;Min_cycle;Max_cycle;Signal;HPM_P1;HPM_P2
2022/07/18 00:02:26;;;;;;;;;;;;;;;;;;;;;
2022/07/18 00:05:04;;;;;;;5.75;2.40;;;;;;;;;;5291868;28;40285;-85
2022/07/18 00:07:40;;;;;;;6.32;2.63;;;;;;;;;;5269656;28;20441;-84
2022/07/18 00:10:17;;;;;;;;;;;;;;;;;;5268103;28;20071;-85
2022/07/18 00:12:51;;;;;;;7.20;3.13;;;;;;;;;;5283344;28;19927;-85
2022/07/18 00:15:25;;;;;;;5.68;2.20;;;;;;;;;;5259122;28;20087;-85
2022/07/18 00:18:06;;;;;;;5.72;2.70;;;;;;;;;;5252637;28;20032;-85
2022/07/18 00:20:52;;;;;;;3.50;2.20;;;;;;;;;;5251097;28;20038;-85
2022/07/18 00:23:29;;;;;;;5.40;2.30;;;;;;;;;;5266944;28;20116;-85
2022/07/18 00:26:09;;;;;;;3.25;2.30;;;;;;;;;;5229482;28;20045;-85
2022/07/18 00:28:46;;;;;;;3.42;2.17;;;;;;;;;;5234081;28;20084;-85
2022/07/18 00:31:32;;;;;;;5.88;3.13;;;;;;;;;;5267864;28;20045;-85
2022/07/18 00:34:08;;;;;;;5.28;2.67;;;;;;;;;;5263794;28;20132;-85
2022/07/18 00:36:50;;;;;;;6.20;2.80;;;;;;;;;;5229418;28;20037;-85
2022/07/18 00:39:44;;;;;;;5.32;2.67;;;;;;;;;;5233230;28;20052;-85
2022/07/18 00:42:22;;;;;;;4.75;2.22;;;;;;;;;;5231424;28;20456;-86
2022/07/18 00:44:54;;;;;;;3.78;2.30;;;;;;;;;;5238847;28;20457;-83
2022/07/18 00:47:25;;;;;;;5.97;3.10;;;;;;;;;;5260435;28;20029;-82
2022/07/18 00:49:57;;;;;;;4.82;4.30;;;;;;;;;;5233140;28;20025;-83
2022/07/18 00:52:28;;;;;;;4.65;3.38;;;;;;;;;;5269002;28;20041;-83
2022/07/18 00:54:59;;;;;;;3.88;2.95;;;;;;;;;;5244321;28;20022;-83
2022/07/18 00:57:30;;;;;;;6.20;4.25;;;;;;;;;;5269699;28;20033;-83
2022/07/18 01:02:53;;;;;;;7.75;4.68;;;;;;;;;;5245608;28;20108;-83
2022/07/18 01:05:24;;;;;;;8.73;4.80;;;;;;;;;;5250227;28;20600;-83
2022/07/18 01:07:55;;;;;;;11.05;6.38;;;;;;;;;;5268271;28;20040;-83
2022/07/18 01:10:27;;;;;;;12.95;5.30;;;;;;;;;;5247138;28;20034;-83
2022/07/18 01:12:58;;;;;;;14.65;5.50;;;;;;;;;;5253802;28;20382;-85
2022/07/18 01:15:29;;;;;;;7.13;5.35;;;;;;;;;;5286535;28;20057;-85
2022/07/18 01:18:00;;;;;;;11.47;5.83;;;;;;;;;;5286036;28;20488;-83
2022/07/18 01:20:31;;;;;;;15.85;5.97;;;;;;;;;;5287925;28;20334;-84
2022/07/18 01:23:03;;;;;;;17.07;5.93;;;;;;;;;;5284138;28;20388;-84
2022/07/18 01:25:34;;;;;;;8.05;5.50;;;;;;;;;;5277320;28;20271;-83
2022/07/18 01:28:05;;;;;;;11.88;5.30;;;;;;;;;;5284113;28;20035;-83
2022/07/18 01:30:36;;;;;;;8.43;5.23;;;;;;;;;;5297691;28;20036;-83
2022/07/18 01:33:07;;;;;;;9.50;5.70;;;;;;;;;;5283088;28;20071;-84
2022/07/18 01:35:39;;;;;;;12.27;5.38;;;;;;;;;;5277865;28;20451;-84
2022/07/18 01:38:10;;;;;;;8.18;5.60;;;;;;;;;;5293901;28;20095;-84
2022/07/18 01:40:41;;;;;;;10.00;5.03;;;;;;;;;;5281673;28;20402;-83
2022/07/18 01:43:12;;;;;;;8.13;5.20;;;;;;;;;;5275128;28;20276;-83
2022/07/18 01:45:43;;;;;;;9.67;5.27;;;;;;;;;;5273883;28;20763;-83
2022/07/18 01:48:15;;;;;;;10.47;4.53;;;;;;;;;;5293331;28;20305;-83
2022/07/18 01:50:49;;;;;;;8.90;5.50;;;;;;;;;;5290148;28;20302;-83
2022/07/18 01:53:21;;;;;;;8.90;5.70;;;;;;;;;;5267130;28;20417;-83
2022/07/18 01:55:52;;;;;;;10.43;5.78;;;;;;;;;;5298250;28;20083;-83
2022/07/18 01:58:23;;;;;;;6.17;5.57;;;;;;;;;;5287379;28;20061;-83
2022/07/18 02:00:54;;;;;;;10.02;5.72;;;;;;;;;;5283181;28;20028;-83
2022/07/18 02:03:26;;;;;;;7.00;5.47;;;;;;;;;;5276564;28;20025;-83
2022/07/18 02:05:57;;;;;;;10.60;6.15;;;;;;;;;;5295603;28;20031;-83
2022/07/18 02:08:29;;;;;;;6.70;5.70;;;;;;;;;;5299463;28;20119;-83
2022/07/18 02:11:01;;;;;;;12.23;6.20;;;;;;;;;;5267046;28;20389;-83
2022/07/18 02:13:32;;;;;;;9.48;5.70;;;;;;;;;;5287383;28;20048;-83
2022/07/18 02:16:04;;;;;;;9.67;5.47;;;;;;;;;;5287563;28;20036;-83
2022/07/18 02:18:35;;;;;;;13.10;6.00;;;;;;;;;;5292783;28;20252;-83
2022/07/18 02:21:07;;;;;;;10.95;5.50;;;;;;;;;;5243942;28;20029;-83
2022/07/18 02:23:38;;;;;;;10.13;6.10;;;;;;;;;;5280138;28;20425;-83
2022/07/18 02:26:09;;;;;;;7.80;5.32;;;;;;;;;;5283088;28;20021;-83
2022/07/18 02:28:41;;;;;;;7.85;4.80;;;;;;;;;;5278803;28;20029;-83
2022/07/18 02:31:12;;;;;;;9.27;5.70;;;;;;;;;;5283106;28;20044;-83
2022/07/18 02:33:43;;;;;;;11.00;5.50;;;;;;;;;;5297617;28;20052;-83
2022/07/18 02:36:14;;;;;;;7.07;4.93;;;;;;;;;;5286269;28;20322;-84
2022/07/18 02:38:45;;;;;;;7.57;5.13;;;;;;;;;;5281528;28;20029;-83
2022/07/18 02:41:17;;;;;;;11.55;3.95;;;;;;;;;;5291255;28;20416;-83
2022/07/18 02:43:48;;;;;;;7.05;3.85;;;;;;;;;;5281004;28;20043;-85
2022/07/18 02:46:19;;;;;;;6.05;5.20;;;;;;;;;;5263752;28;20392;-83
2022/07/18 02:48:50;;;;;;;10.77;5.13;;;;;;;;;;5265356;28;20388;-82
2022/07/18 02:51:22;;;;;;;7.10;5.90;;;;;;;;;;5266799;28;20480;-83
2022/07/18 02:53:53;;;;;;;10.43;5.40;;;;;;;;;;5287708;28;20365;-82
2022/07/18 02:56:24;;;;;;;9.23;6.10;;;;;;;;;;5285694;28;20056;-83
2022/07/18 02:58:55;;;;;;;8.13;5.77;;;;;;;;;;5288262;28;20239;-83
2022/07/18 03:01:26;;;;;;;7.57;5.13;;;;;;;;;;5282081;28;20033;-83
2022/07/18 03:03:59;;;;;;;10.37;5.80;;;;;;;;;;5271413;28;20040;-83
2022/07/18 03:06:30;;;;;;;7.68;6.32;;;;;;;;;;5276907;28;20025;-83
2022/07/18 03:09:02;;;;;;;11.13;5.60;;;;;;;;;;5283484;28;20025;-83
2022/07/18 03:11:33;;;;;;;9.50;5.80;;;;;;;;;;5276555;28;20044;-83
2022/07/18 03:14:05;;;;;;;13.27;6.45;;;;;;;;;;5276128;28;20044;-83
2022/07/18 03:16:36;;;;;;;8.97;5.40;;;;;;;;;;5282160;28;20035;-83
2022/07/18 03:19:07;;;;;;;11.27;6.00;;;;;;;;;;5274922;28;20263;-83
2022/07/18 03:21:38;;;;;;;9.33;5.50;;;;;;;;;;5296691;28;20766;-83
2022/07/18 03:24:10;;;;;;;8.53;5.83;;;;;;;;;;5275992;28;20389;-83
2022/07/18 03:26:42;;;;;;;10.07;5.72;;;;;;;;;;5259713;28;20155;-83
2022/07/18 03:29:13;;;;;;;9.18;5.20;;;;;;;;;;5269079;28;20021;-83
2022/07/18 03:31:44;;;;;;;9.50;5.35;;;;;;;;;;5289104;28;20036;-83
2022/07/18 03:34:15;;;;;;;14.45;6.13;;;;;;;;;;5288082;28;20107;-83
2022/07/18 03:36:47;;;;;;;10.40;5.80;;;;;;;;;;5275462;28;20436;-83
2022/07/18 03:39:18;;;;;;;7.00;5.80;;;;;;;;;;5286678;28;20490;-83
2022/07/18 03:41:51;;;;;;;10.43;5.10;;;;;;;;;;5269255;28;20531;-83
2022/07/18 03:44:22;;;;;;;8.82;5.55;;;;;;;;;;5288147;28;20247;-83
2022/07/18 03:46:53;;;;;;;8.63;5.13;;;;;;;;;;5273408;28;20443;-83
2022/07/18 03:49:25;;;;;;;7.63;5.00;;;;;;;;;;5282446;28;20275;-82
2022/07/18 03:51:56;;;;;;;10.50;5.90;;;;;;;;;;5268277;28;20025;-82
2022/07/18 03:54:27;;;;;;;8.73;5.30;;;;;;;;;;5290361;28;20442;-83
2022/07/18 03:56:58;;;;;;;9.90;5.97;;;;;;;;;;5293924;28;20375;-83
2022/07/18 03:59:29;;;;;;;11.90;5.57;;;;;;;;;;5288217;28;20096;-82
2022/07/18 04:02:01;;;;;;;15.23;6.13;;;;;;;;;;5284137;28;20811;-83
2022/07/18 04:04:32;;;;;;;10.70;5.60;;;;;;;;;;5282969;28;20374;-83
2022/07/18 04:07:03;;;;;;;9.73;5.72;;;;;;;;;;5292821;28;20037;-83
2022/07/18 04:09:34;;;;;;;14.70;6.00;;;;;;;;;;5264848;28;20381;-83
2022/07/18 04:12:05;;;;;;;10.73;5.90;;;;;;;;;;5282386;28;20084;-85
2022/07/18 04:14:37;;;;;;;10.53;5.80;;;;;;;;;;5286384;28;20279;-85
2022/07/18 04:17:08;;;;;;;9.97;6.10;;;;;;;;;;5270477;28;20343;-84
2022/07/18 04:19:39;;;;;;;13.33;5.60;;;;;;;;;;5285893;28;20063;-84
2022/07/18 04:22:10;;;;;;;7.35;5.78;;;;;;;;;;5282078;28;20275;-85
2022/07/18 04:24:41;;;;;;;11.80;6.10;;;;;;;;;;5291398;28;20036;-84
2022/07/18 04:27:13;;;;;;;12.20;5.40;;;;;;;;;;5278995;28;20017;-84
2022/07/18 04:29:44;;;;;;;11.20;6.13;;;;;;;;;;5284142;28;20267;-84
2022/07/18 04:32:15;;;;;;;12.37;5.63;;;;;;;;;;5290380;28;20024;-83
2022/07/18 04:34:46;;;;;;;11.27;5.63;;;;;;;;;;5271435;28;20281;-83
2022/07/18 04:37:17;;;;;;;10.93;5.65;;;;;;;;;;5283760;28;20366;-83
2022/07/18 04:39:49;;;;;;;13.50;5.78;;;;;;;;;;5275974;28;20035;-82
2022/07/18 04:42:20;;;;;;;14.40;6.07;;;;;;;;;;5290682;28;20025;-81
2022/07/18 04:44:51;;;;;;;7.17;5.60;;;;;;;;;;5271741;28;20297;-81
2022/07/18 04:47:22;;;;;;;11.02;5.57;;;;;;;;;;5291066;28;20056;-82
2022/07/18 04:49:54;;;;;;;11.13;4.73;;;;;;;;;;5283484;28;20040;-82
2022/07/18 04:52:25;;;;;;;16.38;5.97;;;;;;;;;;5284122;28;20088;-82
2022/07/18 04:54:57;;;;;;;9.13;5.22;;;;;;;;;;5279420;28;20099;-82
2022/07/18 04:57:28;;;;;;;12.45;5.47;;;;;;;;;;5270833;28;20033;-81
2022/07/18 05:00:00;;;;;;;12.73;5.73;;;;;;;;;;5281516;28;20083;-81
2022/07/18 05:02:31;;;;;;;10.98;5.82;;;;;;;;;;5268650;28;20027;-81
2022/07/18 05:05:03;;;;;;;9.30;5.60;;;;;;;;;;5283878;28;20043;-81
2022/07/18 05:07:34;;;;;;;11.63;6.25;;;;;;;;;;5285981;28;20276;-81
2022/07/18 05:10:07;;;;;;;11.00;5.80;;;;;;;;;;5273131;28;20129;-84
2022/07/18 05:12:39;;;;;;;11.13;6.22;;;;;;;;;;5289073;28;20322;-84
2022/07/18 05:15:11;;;;;;;12.45;6.22;;;;;;;;;;5265013;28;20021;-84
2022/07/18 05:17:43;;;;;;;14.68;6.05;;;;;;;;;;5277457;28;20123;-84
2022/07/18 05:20:15;;;;;;;11.50;6.10;;;;;;;;;;5270420;28;20099;-84
2022/07/18 05:22:47;;;;;;;11.60;5.60;;;;;;;;;;5284347;28;20017;-84
2022/07/18 05:25:18;;;;;;;12.93;5.72;;;;;;;;;;5280891;28;20033;-84
2022/07/18 05:27:50;;;;;;;13.45;6.15;;;;;;;;;;5295387;28;20124;-85
2022/07/18 05:30:23;;;;;;;11.50;6.25;;;;;;;;;;5288532;28;20097;-84
2022/07/18 05:32:54;;;;;;;11.57;5.80;;;;;;;;;;5287109;28;20424;-84
2022/07/18 05:35:25;;;;;;;10.45;5.55;;;;;;;;;;5281125;28;20038;-85
2022/07/18 05:37:56;;;;;;;8.03;4.03;;;;;;;;;;5293680;28;20104;-85
2022/07/18 05:40:27;;;;;;;12.90;5.43;;;;;;;;;;5286559;28;20135;-84
2022/07/18 05:42:59;;;;;;;6.10;4.13;;;;;;;;;;5291802;28;20033;-85
2022/07/18 05:45:31;;;;;;;5.78;4.00;;;;;;;;;;5282458;28;20075;-84
2022/07/18 05:48:02;;;;;;;13.30;4.47;;;;;;;;;;5281010;28;20110;-83
2022/07/18 05:50:33;;;;;;;13.20;4.90;;;;;;;;;;5275350;28;20342;-84
2022/07/18 05:53:05;;;;;;;9.43;4.00;;;;;;;;;;5283811;28;20088;-83
2022/07/18 05:55:36;;;;;;;13.48;4.00;;;;;;;;;;5283302;28;20401;-84
2022/07/18 05:58:07;;;;;;;10.73;3.90;;;;;;;;;;5274330;28;20367;-84
2022/07/18 06:00:38;;;;;;;15.33;4.30;;;;;;;;;;5271625;28;20040;-84
2022/07/18 06:03:10;;;;;;;13.13;4.80;;;;;;;;;;5281810;28;20371;-84
2022/07/18 06:05:42;;;;;;;10.07;4.00;;;;;;;;;;5296672;28;20460;-84
2022/07/18 06:08:13;;;;;;;10.27;4.18;;;;;;;;;;5291324;28;20036;-84
2022/07/18 06:10:44;;;;;;;10.20;4.13;;;;;;;;;;5281990;28;20557;-84
2022/07/18 06:13:16;;;;;;;13.67;4.93;;;;;;;;;;5261884;28;20442;-84
2022/07/18 06:15:47;;;;;;;12.77;4.50;;;;;;;;;;5292733;28;20278;-84
2022/07/18 06:18:18;;;;;;;13.35;4.35;;;;;;;;;;5283229;28;20242;-84
2022/07/18 06:20:49;;;;;;;15.60;5.23;;;;;;;;;;5280491;28;20120;-84
2022/07/18 06:23:20;;;;;;;12.97;4.40;;;;;;;;;;5294340;28;20115;-84
2022/07/18 06:25:52;;;;;;;11.02;4.55;;;;;;;;;;5272608;28;20020;-84
2022/07/18 06:28:23;;;;;;;13.40;4.23;;;;;;;;;;5277509;28;20028;-84
2022/07/18 06:30:54;;;;;;;12.00;4.97;;;;;;;;;;5276081;28;20036;-84
2022/07/18 06:33:26;;;;;;;12.35;5.03;;;;;;;;;;5280882;28;20335;-84
2022/07/18 06:35:57;;;;;;;12.23;4.53;;;;;;;;;;5282911;28;20036;-84
2022/07/18 06:38:28;;;;;;;12.30;4.78;;;;;;;;;;5280302;28;20032;-83
2022/07/18 06:40:59;;;;;;;9.02;5.10;;;;;;;;;;5282240;28;20401;-84
2022/07/18 06:43:31;;;;;;;13.70;4.60;;;;;;;;;;5270445;28;20116;-84
2022/07/18 06:46:02;;;;;;;11.67;5.03;;;;;;;;;;5281385;28;20263;-85
2022/07/18 06:48:34;;;;;;;9.17;4.57;;;;;;;;;;5281263;28;20333;-83
2022/07/18 06:51:05;;;;;;;10.52;4.25;;;;;;;;;;5274304;28;20037;-84
2022/07/18 06:53:37;;;;;;;12.63;4.40;;;;;;;;;;5282056;28;20044;-84
2022/07/18 06:56:08;;;;;;;9.50;3.70;;;;;;;;;;5270385;28;20412;-84
2022/07/18 06:58:39;;;;;;;9.87;4.00;;;;;;;;;;5260155;28;20025;-83
2022/07/18 07:01:10;;;;;;;10.88;3.78;;;;;;;;;;5286269;28;20222;-84
2022/07/18 07:03:41;;;;;;;11.40;3.80;;;;;;;;;;5289752;28;20074;-85
2022/07/18 07:06:13;;;;;;;10.67;3.53;;;;;;;;;;5303966;28;20040;-84
2022/07/18 07:08:49;;;;;;;8.45;3.40;;;;;;;;;;5289633;28;20694;-84
2022/07/18 07:11:21;;;;;;;10.43;3.15;;;;;;;;;;5283758;28;20039;-84
2022/07/18 07:13:53;;;;;;;10.35;2.92;;;;;;;;;;5283829;28;20163;-84
2022/07/18 07:16:24;;;;;;;7.85;2.90;;;;;;;;;;5289280;28;20034;-84
2022/07/18 07:18:55;;;;;;;6.83;2.73;;;;;;;;;;5288621;28;20111;-84
2022/07/18 07:21:26;;;;;;;5.80;2.53;;;;;;;;;;5276883;28;20334;-85
2022/07/18 07:23:58;;;;;;;7.57;2.77;;;;;;;;;;5281755;28;20043;-84
2022/07/18 07:26:29;;;;;;;10.43;2.65;;;;;;;;;;5268427;28;20326;-84
2022/07/18 07:29:00;;;;;;;11.60;2.67;;;;;;;;;;5270570;28;20094;-85
2022/07/18 07:31:37;;;;;;;10.60;3.13;;;;;;;;;;5281421;28;20299;-85
2022/07/18 07:34:09;;;;;;;7.10;2.75;;;;;;;;;;5269535;28;20836;-86
2022/07/18 07:36:40;;;;;;;9.02;2.50;;;;;;;;;;5266482;28;20115;-86
2022/07/18 07:39:12;;;;;;;12.03;2.93;;;;;;;;;;5288958;28;20029;-85
2022/07/18 07:41:43;;;;;;;13.77;2.50;;;;;;;;;;5266027;28;20278;-85
2022/07/18 07:44:14;;;;;;;8.68;2.25;;;;;;;;;;5258926;28;20272;-85
2022/07/18 07:46:52;;;;;;;9.97;2.23;;;;;;;;;;5268638;28;20075;-85
2022/07/18 07:49:23;;;;;;;6.93;1.55;;;;;;;;;;5272090;28;20449;-85
2022/07/18 07:52:02;;;;;;;7.68;2.20;;;;;;;;;;5269788;28;20024;-85
2022/07/18 07:54:38;;;;;;;6.63;1.80;;;;;;;;;;5270840;28;20113;-84
2022/07/18 07:57:09;;;;;;;8.27;1.70;;;;;;;;;;5266151;28;20366;-85
2022/07/18 07:59:43;;;;;;;7.60;1.90;;;;;;;;;;5263670;28;20041;-85
2022/07/18 08:02:18;;;;;;;5.80;1.85;;;;;;;;;;5265923;28;20263;-85
2022/07/18 08:04:50;;;;;;;5.75;1.80;;;;;;;;;;5262094;28;20409;-85
2022/07/18 08:07:24;;;;;;;5.22;1.60;;;;;;;;;;5275598;28;20037;-85
2022/07/18 08:09:55;;;;;;;3.83;1.50;;;;;;;;;;5265406;28;20029;-85
2022/07/18 08:12:27;;;;;;;8.30;1.60;;;;;;;;;;5263491;28;20048;-85
2022/07/18 08:14:58;;;;;;;3.67;1.70;;;;;;;;;;5266122;28;20044;-85
2022/07/18 08:17:32;;;;;;;10.02;2.00;;;;;;;;;;5266236;28;20029;-85
2022/07/18 08:20:04;;;;;;;13.02;2.00;;;;;;;;;;5266817;28;20033;-85
2022/07/18 08:22:38;;;;;;;16.95;2.22;;;;;;;;;;5284665;28;20024;-84
2022/07/18 08:25:09;;;;;;;11.23;1.85;;;;;;;;;;5263323;28;20044;-85
2022/07/18 08:27:40;;;;;;;19.77;2.38;;;;;;;;;;5283683;28;20828;-84
2022/07/18 08:30:14;;;;;;;6.90;2.00;;;;;;;;;;5280572;28;20041;-84
2022/07/18 08:32:45;;;;;;;16.85;3.33;;;;;;;;;;5264561;28;20496;-84
2022/07/18 08:35:17;;;;;;;7.72;2.00;;;;;;;;;;5277362;28;20036;-85
2022/07/18 08:37:50;;;;;;;6.25;1.70;;;;;;;;;;5285196;28;20373;-84
2022/07/18 08:40:21;;;;;;;8.15;1.80;;;;;;;;;;5284007;28;20035;-84
2022/07/18 08:42:57;;;;;;;4.82;1.80;;;;;;;;;;5281974;28;20418;-84
2022/07/18 08:45:28;;;;;;;7.10;1.70;;;;;;;;;;5279884;28;20064;-84
2022/07/18 08:47:59;;;;;;;9.20;1.60;;;;;;;;;;5261535;28;20484;-83
2022/07/18 08:50:30;;;;;;;6.83;1.90;;;;;;;;;;5284026;28;20381;-84
2022/07/18 08:53:02;;;;;;;14.10;2.13;;;;;;;;;;5284698;28;21017;-83
2022/07/18 08:55:35;;;;;;;6.10;1.60;;;;;;;;;;5265430;28;20286;-82
2022/07/18 08:58:07;;;;;;;7.25;1.73;;;;;;;;;;5283742;28;20049;-84
2022/07/18 09:00:38;;;;;;;7.30;1.93;;;;;;;;;;5282728;28;20144;-83
2022/07/18 09:03:09;;;;;;;9.33;2.00;;;;;;;;;;5281433;28;20044;-83
2022/07/18 09:05:43;;;;;;;11.05;2.20;;;;;;;;;;5282917;28;20033;-83
2022/07/18 09:08:19;;;;;;;6.88;1.40;;;;;;;;;;5282947;28;20037;-83
2022/07/18 09:10:54;;;;;;;8.63;1.60;;;;;;;;;;5276098;28;20472;-83
2022/07/18 09:13:36;;;;;;;9.80;2.05;;;;;;;;;;5283994;28;20102;-83
2022/07/18 09:16:11;;;;;;;11.13;1.90;;;;;;;;;;5264790;28;20497;-83
2022/07/18 09:18:44;;;;;;;6.70;1.70;;;;;;;;;;5265674;28;20073;-81
2022/07/18 09:21:24;;;;;;;5.63;1.52;;;;;;;;;;5296101;28;20028;-83
2022/07/18 09:23:55;;;;;;;6.78;1.75;;;;;;;;;;5291965;28;20024;-81
2022/07/18 09:26:36;;;;;;;8.40;1.90;;;;;;;;;;5277479;28;20050;-81
2022/07/18 09:29:08;;;;;;;10.13;1.88;;;;;;;;;;5295388;28;20558;-81
2022/07/18 09:31:39;;;;;;;11.25;2.20;;;;;;;;;;5285809;28;20040;-81
2022/07/18 09:34:10;;;;;;;9.90;1.87;;;;;;;;;;5287173;28;20104;-81
2022/07/18 09:36:55;;;;;;;8.77;1.90;;;;;;;;;;5289998;28;20028;-81
2022/07/18 09:39:26;;;;;;;8.30;1.40;;;;;;;;;;5280288;28;20021;-81
2022/07/18 09:42:13;;;;;;;8.60;1.90;;;;;;;;;;5294506;28;20032;-81
2022/07/18 09:44:58;;;;;;;5.63;1.50;;;;;;;;;;5285119;28;20478;-81
2022/07/18 09:47:29;;;;;;;8.43;1.70;;;;;;;;;;5270797;28;20028;-81
2022/07/18 09:50:01;;;;;;;4.82;1.45;;;;;;;;;;5290793;28;20086;-82
2022/07/18 09:52:32;;;;;;;8.20;2.00;;;;;;;;;;5271973;28;20032;-82
2022/07/18 09:55:05;;;;;;;5.70;1.50;;;;;;;;;;5288873;28;20024;-81
2022/07/18 09:57:37;;;;;;;4.70;1.80;;;;;;;;;;5285901;28;20082;-81
2022/07/18 10:00:08;;;;;;;5.25;1.40;;;;;;;;;;5294694;28;20036;-81
2022/07/18 10:02:40;;;;;;;5.38;1.60;;;;;;;;;;5283741;28;20079;-81
2022/07/18 10:05:11;;;;;;;9.48;1.63;;;;;;;;;;5290908;28;20037;-81
2022/07/18 10:07:42;;;;;;;5.10;1.53;;;;;;;;;;5293434;28;20024;-81
2022/07/18 10:10:15;;;;;;;6.97;1.60;;;;;;;;;;5291300;28;20132;-81
2022/07/18 10:12:47;;;;;;;5.25;1.30;;;;;;;;;;5292867;28;20288;-82
2022/07/18 10:15:20;;;;;;;4.95;1.45;;;;;;;;;;5292297;28;20432;-81
2022/07/18 10:17:51;;;;;;;5.65;1.50;;;;;;;;;;5271944;28;20028;-81
2022/07/18 10:20:41;;;;;;;8.43;1.70;;;;;;;;;;5286530;28;20037;-81
2022/07/18 10:23:18;;;;;;;4.65;1.40;;;;;;;;;;5289159;28;20038;-81
2022/07/18 10:26:07;;;;;;;4.40;1.40;;;;;;;;;;5287404;28;20136;-81
2022/07/18 10:29:00;;;;;;;6.22;1.45;;;;;;;;;;5281552;28;20404;-81
2022/07/18 10:31:34;;;;;;;4.35;1.40;;;;;;;;;;5278720;28;20108;-81
2022/07/18 10:34:05;;;;;;;;;;;;;;;;;;5290485;28;20773;-81
2022/07/18 10:36:37;;;;;;;5.53;1.52;;;;;;;;;;5283339;28;19912;-81
2022/07/18 10:39:10;;;;;;;6.07;1.73;;;;;;;;;;5283475;28;20036;-82
2022/07/18 10:41:48;;;;;;;5.95;1.50;;;;;;;;;;5303248;28;20036;-82
2022/07/18 10:44:28;;;;;;;7.68;1.67;;;;;;;;;;5303927;28;20441;-82
2022/07/18 10:47:03;;;;;;;3.72;1.40;;;;;;;;;;5265497;28;20037;-81
2022/07/18 10:49:49;;;;;;;5.93;1.27;;;;;;;;;;5278526;28;20040;-81
2022/07/18 10:52:23;;;;;;;3.40;1.10;;;;;;;;;;5281425;28;20033;-81
2022/07/18 10:55:06;;;;;;;4.95;1.15;;;;;;;;;;5269677;28;20037;-82
2022/07/18 10:57:39;;;;;;;2.85;1.67;;;;;;;;;;5279817;28;20363;-82
2022/07/18 11:00:14;;;;;;;1.33;1.08;;;;;;;;;;5279643;28;20036;-82
2022/07/18 11:03:01;;;;;;;2.90;1.15;;;;;;;;;;5282123;28;20043;-82
2022/07/18 11:05:36;;;;;;;6.35;1.38;;;;;;;;;;5282125;28;20035;-82
2022/07/18 11:08:10;;;;;;;4.82;1.20;;;;;;;;;;5282156;28;20025;-82
2022/07/18 11:10:41;;;;;;;6.75;1.30;;;;;;;;;;5281861;28;20032;-83
2022/07/18 11:13:24;;;;;;;6.43;1.20;;;;;;;;;;5281039;28;20052;-82
2022/07/18 11:16:05;;;;;;;2.50;1.20;;;;;;;;;;5281465;28;20036;-82
2022/07/18 11:18:39;;;;;;;5.15;1.10;;;;;;;;;;5282332;28;20377;-83
2022/07/18 11:21:30;;;;;;;13.77;1.67;;;;;;;;;;5281110;28;20041;-83
2022/07/18 11:24:09;;;;;;;5.97;1.40;;;;;;;;;;5275090;28;20033;-82
2022/07/18 11:26:44;;;;;;;5.05;1.52;;;;;;;;;;5277344;28;20064;-82
2022/07/18 11:29:16;;;;;;;5.65;1.70;;;;;;;;;;5264543;28;20071;-83
2022/07/18 11:31:51;;;;;;;2.90;1.40;;;;;;;;;;5284983;28;20029;-83
2022/07/18 11:34:24;;;;;;;6.43;1.40;;;;;;;;;;5285941;28;20033;-82
2022/07/18 11:36:56;;;;;;;6.57;1.75;;;;;;;;;;5284467;28;20029;-82
2022/07/18 11:39:31;;;;;;;2.92;1.40;;;;;;;;;;5293150;28;20024;-79
2022/07/18 11:42:03;;;;;;;4.85;1.52;;;;;;;;;;5289527;28;20444;-83
2022/07/18 11:44:34;;;;;;;6.88;1.52;;;;;;;;;;5288551;28;20028;-82
2022/07/18 11:47:08;;;;;;;5.33;1.90;;;;;;;;;;5288046;28;20126;-83
2022/07/18 11:49:39;;;;;;;6.20;1.80;;;;;;;;;;5296353;28;20099;-83
2022/07/18 11:52:10;;;;;;;3.40;1.40;;;;;;;;;;5287911;28;20287;-82
2022/07/18 11:54:48;;;;;;;5.03;1.33;;;;;;;;;;5292381;28;20275;-84
2022/07/18 11:57:26;;;;;;;4.97;1.50;;;;;;;;;;5281758;28;20065;-83
2022/07/18 11:59:58;;;;;;;2.38;1.15;;;;;;;;;;5293029;28;20035;-83
2022/07/18 12:02:48;;;;;;;2.85;1.20;;;;;;;;;;5294863;28;20123;-82
2022/07/18 12:05:29;;;;;;;5.55;1.20;;;;;;;;;;5288623;28;20420;-83
2022/07/18 12:08:00;;;;;;;1.73;1.20;;;;;;;;;;5288836;28;20500;-82
2022/07/18 12:10:31;;;;;;;5.70;1.23;;;;;;;;;;5296083;28;20052;-82
2022/07/18 12:13:02;;;;;;;3.37;1.23;;;;;;;;;;5290776;28;20047;-83
2022/07/18 12:15:41;;;;;;;3.37;1.43;;;;;;;;;;5289390;28;20480;-82
2022/07/18 12:18:27;;;;;;;4.78;1.40;;;;;;;;;;5284623;28;20041;-83
2022/07/18 12:21:10;;;;;;;4.10;1.35;;;;;;;;;;5292051;28;20516;-83
2022/07/18 12:23:41;;;;;;;6.77;1.60;;;;;;;;;;5266107;28;20138;-83
2022/07/18 12:26:25;;;;;;;4.47;1.20;;;;;;;;;;5275902;28;20549;-83
2022/07/18 12:29:07;;;;;;;2.92;1.20;;;;;;;;;;5290570;28;20028;-83
2022/07/18 12:31:38;;;;;;;3.83;1.30;;;;;;;;;;5270543;28;20095;-82
2022/07/18 12:34:13;;;;;;;3.13;1.43;;;;;;;;;;5282319;28;20036;-82
2022/07/18 12:36:51;;;;;;;6.05;1.50;;;;;;;;;;5294181;28;20029;-83
2022/07/18 12:39:30;;;;;;;4.22;1.38;;;;;;;;;;5273532;28;20064;-83
2022/07/18 12:42:01;;;;;;;7.15;1.48;;;;;;;;;;5282276;28;20043;-83
2022/07/18 12:44:32;;;;;;;2.70;1.23;;;;;;;;;;5265578;28;20100;-83
2022/07/18 12:47:04;;;;;;;5.27;1.30;;;;;;;;;;5282578;28;20469;-82
2022/07/18 12:49:38;;;;;;;2.90;1.20;;;;;;;;;;5284602;28;20017;-83
2022/07/18 12:52:09;;;;;;;4.15;1.10;;;;;;;;;;5283481;28;20114;-82
2022/07/18 12:54:40;;;;;;;3.67;1.60;;;;;;;;;;5282778;28;20106;-83
2022/07/18 12:57:11;;;;;;;3.63;1.20;;;;;;;;;;5282892;28;20029;-83
2022/07/18 12:59:45;;;;;;;4.43;1.50;;;;;;;;;;5283282;28;20135;-83
2022/07/18 13:02:17;;;;;;;3.83;1.20;;;;;;;;;;5283792;28;20025;-83
2022/07/18 13:04:48;;;;;;;5.80;1.60;;;;;;;;;;5284421;28;20541;-83
2022/07/18 13:07:19;;;;;;;5.23;1.17;;;;;;;;;;5283663;28;20092;-82
2022/07/18 13:09:51;;;;;;;3.80;1.27;;;;;;;;;;5265818;28;20094;-83
2022/07/18 13:12:22;;;;;;;5.65;1.02;;;;;;;;;;5283544;28;20208;-83
2022/07/18 13:14:53;;;;;;;3.07;1.30;;;;;;;;;;5283802;28;20048;-83
2022/07/18 13:17:24;;;;;;;16.07;2.00;;;;;;;;;;5282755;28;20715;-83
2022/07/18 13:19:55;;;;;;;3.10;1.20;;;;;;;;;;5262326;28;20394;-83
2022/07/18 13:22:26;;;;;;;4.57;1.20;;;;;;;;;;5265977;28;20033;-83
2022/07/18 13:24:58;;;;;;;4.37;1.30;;;;;;;;;;5266532;28;20033;-82
2022/07/18 13:27:29;;;;;;;3.08;1.15;;;;;;;;;;5279831;28;20068;-83
2022/07/18 13:30:01;;;;;;;2.23;1.20;;;;;;;;;;5260342;28;20071;-83
2022/07/18 13:32:33;;;;;;;2.65;1.35;;;;;;;;;;5282011;28;20063;-83
2022/07/18 13:35:07;;;;;;;5.00;1.40;;;;;;;;;;5263748;28;20048;-83
2022/07/18 13:37:38;;;;;;;2.72;1.10;;;;;;;;;;5283448;28;20021;-83
2022/07/18 13:40:10;;;;;;;4.00;1.30;;;;;;;;;;5282966;28;20037;-83
2022/07/18 13:42:42;;;;;;;4.32;1.20;;;;;;;;;;5283183;28;20025;-83
2022/07/18 13:45:14;;;;;;;5.72;1.33;;;;;;;;;;5283074;28;20036;-83
2022/07/18 13:47:45;;;;;;;4.78;1.17;;;;;;;;;;5283879;28;20017;-83
2022/07/18 13:50:17;;;;;;;5.83;1.67;;;;;;;;;;5285487;28;20025;-83
2022/07/18 13:52:48;;;;;;;5.95;1.40;;;;;;;;;;5282794;28;20017;-83
2022/07/18 13:55:19;;;;;;;3.03;1.43;;;;;;;;;;5288266;28;20112;-83
2022/07/18 13:57:51;;;;;;;2.27;1.20;;;;;;;;;;5306327;28;20016;-83
2022/07/18 14:00:22;;;;;;;4.57;1.25;;;;;;;;;;5320656;28;20029;-82
2022/07/18 14:02:53;;;;;;;3.20;1.10;;;;;;;;;;5301291;28;20017;-82
2022/07/18 14:05:25;;;;;;;3.77;1.30;;;;;;;;;;5307448;28;20022;-82
2022/07/18 14:07:56;;;;;;;2.60;1.30;;;;;;;;;;5293904;28;20375;-83
2022/07/18 14:10:27;;;;;;;5.37;1.20;;;;;;;;;;5286121;28;20128;-83
2022/07/18 14:12:59;;;;;;;3.67;1.40;;;;;;;;;;5283634;28;20039;-83
2022/07/18 14:15:30;;;;;;;1.70;1.27;;;;;;;;;;5280007;28;20027;-83
2022/07/18 14:18:04;;;;;;;3.17;1.17;;;;;;;;;;5282918;28;20021;-84
2022/07/18 14:20:35;;;;;;;3.08;1.10;;;;;;;;;;5281220;28;20024;-83
2022/07/18 14:23:06;;;;;;;3.20;1.30;;;;;;;;;;5282447;28;20159;-83
2022/07/18 14:25:37;;;;;;;1.60;1.20;;;;;;;;;;5282073;28;20127;-83
2022/07/18 14:28:09;;;;;;;3.90;1.58;;;;;;;;;;5283300;28;20060;-83
2022/07/18 14:30:40;;;;;;;4.60;1.53;;;;;;;;;;5284195;28;20025;-83
2022/07/18 14:33:11;;;;;;;2.93;1.20;;;;;;;;;;5271233;28;20025;-83
2022/07/18 14:35:42;;;;;;;2.73;1.40;;;;;;;;;;5282721;28;20040;-83
2022/07/18 14:38:13;;;;;;;3.57;1.30;;;;;;;;;;5281431;28;20032;-83
2022/07/18 14:40:45;;;;;;;4.07;1.30;;;;;;;;;;5282143;28;20445;-83
2022/07/18 14:43:18;;;;;;;3.67;1.33;;;;;;;;;;5282140;28;20458;-83
2022/07/18 14:45:51;;;;;;;3.03;1.27;;;;;;;;;;5261623;28;20589;-83
2022/07/18 14:48:23;;;;;;;5.18;1.67;;;;;;;;;;5264234;28;20082;-83
2022/07/18 14:50:54;;;;;;;4.20;1.98;;;;;;;;;;5275355;28;20033;-82
2022/07/18 14:53:25;;;;;;;6.60;1.60;;;;;;;;;;5281157;28;20026;-83
2022/07/18 14:55:56;;;;;;;6.82;1.63;;;;;;;;;;5281648;28;20061;-83
2022/07/18 14:58:27;;;;;;;3.17;1.33;;;;;;;;;;5282618;28;20021;-83
2022/07/18 15:01:02;;;;;;;3.87;1.80;;;;;;;;;;5280881;28;20029;-83
2022/07/18 15:03:33;;;;;;;5.72;1.50;;;;;;;;;;5281267;28;20334;-83
2022/07/18 15:06:04;;;;;;;5.00;1.65;;;;;;;;;;5261259;28;20025;-84
2022/07/18 15:08:35;;;;;;;2.87;1.27;;;;;;;;;;5264886;28;20017;-83
2022/07/18 15:11:06;;;;;;;4.17;1.90;;;;;;;;;;5260165;28;20033;-82
2022/07/18 15:13:37;;;;;;;5.40;1.50;;;;;;;;;;5280461;28;20448;-83
2022/07/18 15:16:09;;;;;;;3.20;1.30;;;;;;;;;;5280839;28;20064;-83
2022/07/18 15:18:40;;;;;;;2.53;1.33;;;;;;;;;;5281280;28;20014;-83